sensor_id;sensor_type;location;lat;lon;timestamp;pressure;altitude;pressure_sealevel;temperature;humidity
59315;BME280;46521;50.160;20.802;2023-08-21T00:08:24;100090.92;;;21.99;67.38
59315;BME280;46521;50.160;20.802;2023-08-21T00:18:26;100093.97;;;21.90;67.46
59315;BME280;46521;50.160;20.802;2023-08-21T00:28:27;100100.85;;;21.74;68.04
59315;BME280;46521;50.160;20.802;2023-08-21T00:38:34;100101.31;;;21.71;68.16
59315;BME280;46521;50.160;20.802;2023-08-21T00:48:36;100109.11;;;21.61;68.28
59315;BME280;46521;50.160;20.802;2023-08-21T00:58:38;100116.25;;;21.55;68.43
59315;BME280;46521;50.160;20.802;2023-08-21T01:08:50;100113.56;;;21.55;68.76
59315;BME280;46521;50.160;20.802;2023-08-21T01:18:54;100107.06;;;21.45;68.99
59315;BME280;46521;50.160;20.802;2023-08-21T01:28:56;100111.44;;;21.27;69.28
59315;BME280;46521;50.160;20.802;2023-08-21T01:38:57;100102.75;;;21.25;69.45
59315;BME280;46521;50.160;20.802;2023-08-21T01:48:59;100100.68;;;21.27;69.92
59315;BME280;46521;50.160;20.802;2023-08-21T01:59:00;100103.30;;;21.15;69.86
59315;BME280;46521;50.160;20.802;2023-08-21T02:09:02;100103.08;;;21.17;69.96
59315;BME280;46521;50.160;20.802;2023-08-21T02:19:03;100102.49;;;21.15;70.09
59315;BME280;46521;50.160;20.802;2023-08-21T02:29:05;100105.24;;;21.08;70.13
59315;BME280;46521;50.160;20.802;2023-08-21T02:39:06;100104.75;;;20.99;70.59
59315;BME280;46521;50.160;20.802;2023-08-21T02:49:08;100109.54;;;20.97;70.74
59315;BME280;46521;50.160;20.802;2023-08-21T02:59:09;100106.09;;;21.09;71.03
59315;BME280;46521;50.160;20.802;2023-08-21T03:09:11;100089.98;;;21.20;70.53
59315;BME280;46521;50.160;20.802;2023-08-21T03:19:12;100095.01;;;21.17;70.75
59315;BME280;46521;50.160;20.802;2023-08-21T03:29:13;100104.08;;;21.34;70.61
59315;BME280;46521;50.160;20.802;2023-08-21T03:39:15;100088.45;;;21.43;70.27
59315;BME280;46521;50.160;20.802;2023-08-21T03:49:17;100104.72;;;21.48;70.20
59315;BME280;46521;50.160;20.802;2023-08-21T03:59:18;100090.91;;;21.45;70.39
59315;BME280;46521;50.160;20.802;2023-08-21T04:09:20;100098.53;;;21.48;70.54
59315;BME280;46521;50.160;20.802;2023-08-21T04:19:21;100093.61;;;21.45;70.32
59315;BME280;46521;50.160;20.802;2023-08-21T04:29:23;100094.23;;;21.28;70.41
59315;BME280;46521;50.160;20.802;2023-08-21T04:39:24;100104.98;;;21.28;70.76
59315;BME280;46521;50.160;20.802;2023-08-21T04:49:26;100102.72;;;21.43;71.27
59315;BME280;46521;50.160;20.802;2023-08-21T04:59:28;100105.55;;;21.79;71.47
59315;BME280;46521;50.160;20.802;2023-08-21T05:09:29;100105.72;;;22.20;71.18
59315;BME280;46521;50.160;20.802;2023-08-21T05:19:31;100099.75;;;22.65;70.71
59315;BME280;46521;50.160;20.802;2023-08-21T05:29:32;100101.98;;;23.09;70.50
59315;BME280;46521;50.160;20.802;2023-08-21T05:39:35;100111.52;;;23.57;70.17
59315;BME280;46521;50.160;20.802;2023-08-21T05:49:37;100125.67;;;24.10;69.53
59315;BME280;46521;50.160;20.802;2023-08-21T05:59:44;100112.85;;;24.56;69.18
59315;BME280;46521;50.160;20.802;2023-08-21T06:09:46;100104.22;;;24.98;67.85
59315;BME280;46521;50.160;20.802;2023-08-21T06:19:47;100118.27;;;25.45;67.59
59315;BME280;46521;50.160;20.802;2023-08-21T06:29:48;100126.22;;;25.84;66.82
59315;BME280;46521;50.160;20.802;2023-08-21T06:39:50;100136.88;;;26.28;66.15
59315;BME280;46521;50.160;20.802;2023-08-21T06:49:51;100127.73;;;26.82;65.45
59315;BME280;46521;50.160;20.802;2023-08-21T06:59:53;100135.48;;;27.21;64.85
59315;BME280;46521;50.160;20.802;2023-08-21T07:09:55;100151.06;;;27.46;64.11
59315;BME280;46521;50.160;20.802;2023-08-21T07:19:56;100154.88;;;27.66;63.43
59315;BME280;46521;50.160;20.802;2023-08-21T07:29:58;100153.02;;;28.18;62.62
59315;BME280;46521;50.160;20.802;2023-08-21T07:39:59;100141.58;;;28.36;61.92
59315;BME280;46521;50.160;20.802;2023-08-21T07:50:01;100147.02;;;28.47;61.37
59315;BME280;46521;50.160;20.802;2023-08-21T08:00:03;100142.07;;;28.69;61.05
59315;BME280;46521;50.160;20.802;2023-08-21T08:10:05;100162.02;;;28.18;61.28
59315;BME280;46521;50.160;20.802;2023-08-21T08:20:07;100159.23;;;28.65;61.04
59315;BME280;46521;50.160;20.802;2023-08-21T08:30:09;100164.42;;;28.61;60.86
59315;BME280;46521;50.160;20.802;2023-08-21T08:40:11;100188.61;;;28.68;61.08
59315;BME280;46521;50.160;20.802;2023-08-21T08:50:13;100187.55;;;28.58;60.75
59315;BME280;46521;50.160;20.802;2023-08-21T09:00:15;100187.02;;;28.36;60.50
59315;BME280;46521;50.160;20.802;2023-08-21T09:10:17;100201.40;;;27.90;60.22
59315;BME280;46521;50.160;20.802;2023-08-21T09:20:19;100207.27;;;27.46;59.45
59315;BME280;46521;50.160;20.802;2023-08-21T09:30:21;100201.72;;;27.20;59.65
59315;BME280;46521;50.160;20.802;2023-08-21T09:40:22;100197.01;;;27.00;59.80
59315;BME280;46521;50.160;20.802;2023-08-21T09:50:24;100207.83;;;26.90;59.87
59315;BME280;46521;50.160;20.802;2023-08-21T10:00:30;100201.27;;;26.81;60.28
59315;BME280;46521;50.160;20.802;2023-08-21T10:10:35;100193.08;;;26.75;60.74
59315;BME280;46521;50.160;20.802;2023-08-21T10:20:38;100182.20;;;26.70;60.70
59315;BME280;46521;50.160;20.802;2023-08-21T10:30:40;100167.05;;;26.74;60.77
59315;BME280;46521;50.160;20.802;2023-08-21T10:41:05;100153.58;;;27.00;60.55
59315;BME280;46521;50.160;20.802;2023-08-21T10:51:07;100159.70;;;27.38;60.11
59315;BME280;46521;50.160;20.802;2023-08-21T11:01:10;100147.80;;;27.60;59.63
59315;BME280;46521;50.160;20.802;2023-08-21T11:11:16;100138.58;;;27.66;59.14
59315;BME280;46521;50.160;20.802;2023-08-21T11:21:18;100149.47;;;27.81;59.22
59315;BME280;46521;50.160;20.802;2023-08-21T11:31:19;100145.86;;;27.40;59.69
59315;BME280;46521;50.160;20.802;2023-08-21T11:41:21;100159.09;;;27.21;59.82
59315;BME280;46521;50.160;20.802;2023-08-21T11:51:22;100153.66;;;27.21;59.82
59315;BME280;46521;50.160;20.802;2023-08-21T12:01:26;100148.22;;;27.15;59.74
59315;BME280;46521;50.160;20.802;2023-08-21T12:11:28;100153.05;;;27.03;59.94
59315;BME280;46521;50.160;20.802;2023-08-21T12:21:30;100154.08;;;26.87;59.74
59315;BME280;46521;50.160;20.802;2023-08-21T12:31:38;100154.70;;;27.04;60.30
59315;BME280;46521;50.160;20.802;2023-08-21T12:41:40;100151.86;;;27.47;60.54
59315;BME280;46521;50.160;20.802;2023-08-21T13:12:25;100128.76;;;28.57;59.29
59315;BME280;46521;50.160;20.802;2023-08-21T13:32:50;100108.64;;;28.43;58.58
59315;BME280;46521;50.160;20.802;2023-08-21T13:42:52;100103.25;;;28.22;58.88
59315;BME280;46521;50.160;20.802;2023-08-21T13:52:53;100091.27;;;28.39;59.02
59315;BME280;46521;50.160;20.802;2023-08-21T14:02:55;100081.42;;;28.53;58.79
59315;BME280;46521;50.160;20.802;2023-08-21T14:12:56;100063.70;;;28.66;58.54
59315;BME280;46521;50.160;20.802;2023-08-21T14:22:58;100056.34;;;28.72;58.32
59315;BME280;46521;50.160;20.802;2023-08-21T14:32:59;100051.39;;;28.79;57.81
59315;BME280;46521;50.160;20.802;2023-08-21T14:43:01;100036.19;;;28.73;57.69
59315;BME280;46521;50.160;20.802;2023-08-21T14:53:03;100031.02;;;28.76;57.42
59315;BME280;46521;50.160;20.802;2023-08-21T15:03:04;100025.29;;;28.78;57.15
59315;BME280;46521;50.160;20.802;2023-08-21T15:23:14;100017.13;;;28.73;57.34
59315;BME280;46521;50.160;20.802;2023-08-21T15:33:15;100006.28;;;28.68;57.31
59315;BME280;46521;50.160;20.802;2023-08-21T15:53:50;99993.30;;;28.44;57.45
59315;BME280;46521;50.160;20.802;2023-08-21T16:03:51;99994.75;;;28.26;57.73
59315;BME280;46521;50.160;20.802;2023-08-21T16:13:53;100001.56;;;28.13;58.05
59315;BME280;46521;50.160;20.802;2023-08-21T16:23:54;100001.33;;;27.99;58.15
59315;BME280;46521;50.160;20.802;2023-08-21T16:33:56;100007.61;;;27.79;59.21
59315;BME280;46521;50.160;20.802;2023-08-21T16:43:58;100007.06;;;27.72;59.65
59315;BME280;46521;50.160;20.802;2023-08-21T16:53:59;99997.29;;;27.66;60.31
59315;BME280;46521;50.160;20.802;2023-08-21T17:04:01;99988.06;;;27.57;61.20
59315;BME280;46521;50.160;20.802;2023-08-21T17:14:02;99994.86;;;27.44;61.74
59315;BME280;46521;50.160;20.802;2023-08-21T17:24:04;100000.23;;;27.13;61.77
59315;BME280;46521;50.160;20.802;2023-08-21T17:34:06;99998.33;;;26.98;61.64
59315;BME280;46521;50.160;20.802;2023-08-21T17:44:07;100014.03;;;26.81;61.90
59315;BME280;46521;50.160;20.802;2023-08-21T17:54:09;100020.49;;;26.69;62.10
59315;BME280;46521;50.160;20.802;2023-08-21T18:04:10;100047.02;;;26.57;62.32
59315;BME280;46521;50.160;20.802;2023-08-21T18:14:13;100056.70;;;26.42;63.07
59315;BME280;46521;50.160;20.802;2023-08-21T18:24:17;100073.71;;;26.28;62.93
59315;BME280;46521;50.160;20.802;2023-08-21T18:34:19;100071.45;;;26.14;63.00
59315;BME280;46521;50.160;20.802;2023-08-21T18:44:20;100080.59;;;26.03;63.73
59315;BME280;46521;50.160;20.802;2023-08-21T18:54:22;100085.61;;;25.89;63.74
59315;BME280;46521;50.160;20.802;2023-08-21T19:04:26;100065.97;;;25.71;63.41
59315;BME280;46521;50.160;20.802;2023-08-21T19:14:28;100072.79;;;25.47;63.53
59315;BME280;46521;50.160;20.802;2023-08-21T19:24:29;100076.48;;;25.35;63.71
59315;BME280;46521;50.160;20.802;2023-08-21T19:34:31;100080.09;;;25.19;63.52
59315;BME280;46521;50.160;20.802;2023-08-21T19:44:33;100078.78;;;24.99;63.28
59315;BME280;46521;50.160;20.802;2023-08-21T19:54:35;100089.36;;;24.79;63.75
59315;BME280;46521;50.160;20.802;2023-08-21T20:04:37;100091.51;;;24.77;63.56
59315;BME280;46521;50.160;20.802;2023-08-21T20:14:38;100091.01;;;24.80;63.65
59315;BME280;46521;50.160;20.802;2023-08-21T20:24:39;100099.03;;;24.75;63.88
59315;BME280;46521;50.160;20.802;2023-08-21T20:34:41;100107.00;;;24.25;64.13
59315;BME280;46521;50.160;20.802;2023-08-21T20:44:43;100102.94;;;23.89;64.94
59315;BME280;46521;50.160;20.802;2023-08-21T20:54:47;100113.02;;;23.65;65.39
59315;BME280;46521;50.160;20.802;2023-08-21T21:04:51;100119.66;;;23.74;65.71
59315;BME280;46521;50.160;20.802;2023-08-21T21:14:54;100114.58;;;23.61;66.05
59315;BME280;46521;50.160;20.802;2023-08-21T21:24:55;100130.62;;;23.38;66.61
59315;BME280;46521;50.160;20.802;2023-08-21T21:34:57;100122.96;;;23.47;66.98
59315;BME280;46521;50.160;20.802;2023-08-21T21:44:58;100139.16;;;23.47;66.94
59315;BME280;46521;50.160;20.802;2023-08-21T21:55:00;100142.33;;;23.03;67.31
59315;BME280;46521;50.160;20.802;2023-08-21T22:05:01;100156.80;;;22.74;67.84
59315;BME280;46521;50.160;20.802;2023-08-21T22:15:05;100147.33;;;22.71;68.34
59315;BME280;46521;50.160;20.802;2023-08-21T22:25:07;100143.79;;;22.82;68.30
59315;BME280;46521;50.160;20.802;2023-08-21T22:35:08;100148.34;;;22.94;68.52
59315;BME280;46521;50.160;20.802;2023-08-21T22:45:10;100147.77;;;22.92;68.37
59315;BME280;46521;50.160;20.802;2023-08-21T22:55:12;100154.60;;;22.59;68.76
59315;BME280;46521;50.160;20.802;2023-08-21T23:05:13;100153.86;;;22.28;69.11
59315;BME280;46521;50.160;20.802;2023-08-21T23:15:15;100158.17;;;22.17;69.47
59315;BME280;46521;50.160;20.802;2023-08-21T23:25:16;100153.83;;;22.04;69.91
59315;BME280;46521;50.160;20.802;2023-08-21T23:35:17;100144.44;;;21.95;70.34
59315;BME280;46521;50.160;20.802;2023-08-21T23:45:19;100138.59;;;21.98;70.45
59315;BME280;46521;50.160;20.802;2023-08-21T23:55:20;100137.16;;;21.84;70.50
